Time;durP1;ratioP1;P1;durP2;ratioP2;P2;SDS_P1;SDS_P2;PMS_P1;PMS_P2;Temp;Humidity;BMP_temperature;BMP_pressure;BME280_temperature;BME280_humidity;BME280_pressure;Samples;Min_cycle;Max_cycle;Signal;HPM_P1;HPM_P2
2023/01/15 00:03:10;;;;;;;0.80;0.65;;;12.20;64.00;;;11.16;62.04;99452.47;12259302;19;20483;-87
2023/01/15 00:07:12;;;;;;;0.50;0.50;;;12.20;63.70;;;11.16;62.08;99439.41;12258881;19;20018;-87
2023/01/15 00:11:14;;;;;;;0.52;0.52;;;12.20;63.50;;;11.12;61.91;99440.56;12257449;19;20013;-87
2023/01/15 00:15:17;;;;;;;0.82;0.57;;;12.30;63.80;;;10.98;61.97;99405.91;12252627;19;20389;-87
2023/01/15 00:19:18;;;;;;;0.50;0.50;;;12.30;63.60;;;11.18;62.08;99433.09;12256900;19;20014;-86
2023/01/15 00:27:37;;;;;;;1.13;0.60;;;12.30;63.50;;;11.15;62.02;99414.19;12255020;19;20081;-87
2023/01/15 00:27:44;;;;;;;0.50;0.50;;;12.30;63.50;;;11.16;61.81;99413.25;12253624;19;20035;-87
2023/01/15 00:32:03;;;;;;;0.43;0.43;;;12.50;63.50;;;11.25;62.11;99430.81;12250857;19;20107;-86
2023/01/15 00:36:05;;;;;;;0.52;0.52;;;12.40;63.30;;;11.33;61.85;99438.88;12246945;19;20018;-86
2023/01/15 00:40:08;;;;;;;0.60;0.60;;;12.40;63.00;;;11.32;61.81;99423.34;12248007;19;20022;-86
2023/01/15 00:44:10;;;;;;;0.50;0.50;;;12.40;63.10;;;11.33;61.89;99410.13;12249950;19;20480;-86
2023/01/15 00:48:11;;;;;;;0.65;0.52;;;12.40;62.80;;;11.38;62.14;99401.94;12253744;19;20007;-87
2023/01/15 00:52:13;;;;;;;0.52;0.52;;;12.50;62.70;;;11.33;61.99;99384.00;12253075;19;20010;-87
2023/01/15 00:56:15;;;;;;;1.00;0.73;;;12.40;62.90;;;11.39;62.15;99378.28;12247014;19;20006;-87
2023/01/15 01:00:17;;;;;;;0.77;0.60;;;12.50;62.80;;;11.41;61.99;99379.00;12246777;19;20487;-86
2023/01/15 01:04:19;;;;;;;0.50;0.50;;;12.50;62.90;;;11.45;62.00;99398.72;12248455;19;20353;-87
2023/01/15 01:08:20;;;;;;;0.63;0.57;;;12.50;63.00;;;11.35;61.85;99371.66;12251043;19;20036;-87
2023/01/15 01:12:22;;;;;;;0.63;0.63;;;12.60;62.80;;;11.49;61.98;99384.44;12249904;19;20018;-86
2023/01/15 01:16:29;;;;;;;1.35;0.63;;;12.60;62.70;;;11.52;62.08;99380.75;12245364;19;20014;-87
2023/01/15 01:20:32;;;;;;;0.50;0.50;;;12.70;62.70;;;11.30;61.72;99326.75;12247122;19;20491;-87
2023/01/15 01:24:34;;;;;;;0.50;0.50;;;12.60;62.70;;;11.54;61.87;99362.31;12247486;19;20028;-86
2023/01/15 01:28:36;;;;;;;0.40;0.40;;;12.70;62.50;;;11.54;61.89;99359.72;12105542;19;2807161;-87
2023/01/15 01:32:38;;;;;;;0.57;0.57;;;12.60;62.30;;;11.35;61.98;99329.84;12252802;19;20895;-87
2023/01/15 01:36:43;;;;;;;0.43;0.43;;;12.70;62.40;;;11.54;62.00;99357.09;12252282;19;20014;-86
2023/01/15 01:40:45;;;;;;;0.40;0.40;;;12.70;62.30;;;11.40;61.99;99351.19;12247383;19;20497;-86
2023/01/15 01:44:46;;;;;;;0.43;0.43;;;12.70;62.20;;;11.66;62.07;99375.22;12249282;19;20035;-86
2023/01/15 01:48:54;;;;;;;0.40;0.40;;;12.90;62.20;;;11.64;61.81;99365.88;12252049;19;20011;-86
2023/01/15 01:53:02;;;;;;;0.50;0.50;;;12.80;62.10;;;11.61;61.82;99339.94;12247739;19;20006;-86
2023/01/15 01:57:05;;;;;;;0.40;0.40;;;12.80;62.20;;;11.76;61.76;99343.91;12252065;19;20449;-87
2023/01/15 02:01:07;;;;;;;0.40;0.40;;;12.80;62.10;;;11.74;62.03;99345.81;12247812;19;20022;-87
2023/01/15 02:05:19;;;;;;;0.50;0.50;;;13.00;62.30;;;11.61;61.81;99319.03;12246236;19;20027;-86
2023/01/15 02:09:20;;;;;;;0.40;0.40;;;12.90;62.00;;;11.79;61.78;99346.28;12251253;19;20006;-86
2023/01/15 02:13:37;;;;;;;0.40;0.40;;;12.90;62.00;;;11.73;61.97;99347.63;12249136;19;20010;-87
2023/01/15 02:17:59;;;;;;;0.45;0.45;;;12.90;62.10;;;11.85;61.79;99356.22;12250561;19;20006;-86
2023/01/15 02:22:47;;;;;;;0.40;0.40;;;12.90;62.00;;;11.84;61.93;99349.34;12249915;19;20014;-87
2023/01/15 02:27:05;;;;;;;0.40;0.40;;;13.00;62.10;;;11.85;61.81;99344.94;12251643;19;20006;-86
2023/01/15 02:31:39;;;;;;;0.75;0.63;;;13.00;62.30;;;11.85;61.89;99358.84;12248944;19;20011;-87
2023/01/15 02:35:59;;;;;;;0.38;0.38;;;13.00;62.30;;;11.84;61.81;99349.34;12239981;19;20492;-87
2023/01/15 02:40:07;;;;;;;0.30;0.30;;;13.00;62.30;;;11.74;61.91;99330.13;12246417;19;20015;-86
2023/01/15 02:44:12;;;;;;;0.53;0.53;;;13.00;62.50;;;11.77;61.81;99329.88;12246706;19;20010;-87
2023/01/15 02:48:19;;;;;;;0.40;0.40;;;13.00;62.60;;;11.83;61.99;99334.63;12249131;19;20017;-87
2023/01/15 02:52:52;;;;;;;0.30;0.30;;;13.00;63.60;;;11.80;61.97;99321.81;12247998;19;20007;-87
2023/01/15 02:56:58;;;;;;;0.47;0.47;;;13.00;63.80;;;11.74;61.80;99309.22;12245997;19;20022;-87
2023/01/15 03:01:09;;;;;;;0.43;0.43;;;13.00;62.80;;;11.82;61.94;99314.63;12244231;19;20027;-87
2023/01/15 03:05:38;;;;;;;0.40;0.40;;;13.00;62.90;;;11.87;61.76;99329.97;12255678;19;20125;-87
2023/01/15 03:09:40;;;;;;;0.35;0.35;;;13.00;63.70;;;11.87;61.86;99322.13;12256902;19;20014;-86
2023/01/15 03:13:42;;;;;;;0.55;0.55;;;12.90;63.10;;;11.90;61.94;99319.25;12256977;19;20014;-86
2023/01/15 03:17:52;;;;;;;0.47;0.40;;;13.00;63.30;;;11.85;62.01;99308.31;12257781;19;20344;-87
2023/01/15 03:22:22;;;;;;;0.30;0.30;;;12.90;63.20;;;11.79;61.89;99307.03;12257391;19;20033;-87
2023/01/15 03:26:25;;;;;;;0.40;0.40;;;13.00;63.40;;;11.79;61.97;99295.75;12252129;19;20076;-86
2023/01/15 03:30:28;;;;;;;0.38;0.38;;;12.90;63.20;;;11.63;61.90;99264.81;12257283;19;20006;-87
2023/01/15 03:34:50;;;;;;;0.50;0.50;;;12.90;63.40;;;11.88;62.01;99306.34;12252460;19;20014;-86
2023/01/15 03:38:54;;;;;;;0.40;0.40;;;12.90;63.40;;;11.84;61.98;99277.91;12258250;19;20056;-86
2023/01/15 03:47:57;;;;;;;0.32;0.32;;;12.90;63.40;;;11.89;62.08;99309.78;12254697;19;20018;-86
2023/01/15 03:52:25;;;;;;;0.30;0.30;;;12.90;63.40;;;11.84;62.02;99291.81;12259060;19;20039;-86
2023/01/15 03:56:57;;;;;;;0.40;0.40;;;12.90;63.60;;;11.67;62.03;99272.28;12252165;19;20018;-86
2023/01/15 04:01:04;;;;;;;0.32;0.30;;;12.90;63.80;;;11.88;61.97;99314.19;12249468;19;20043;-86
2023/01/15 04:05:07;;;;;;;0.30;0.30;;;12.90;63.80;;;11.65;62.10;99276.00;12253089;19;20014;-86
2023/01/15 04:09:13;;;;;;;0.50;0.40;;;12.90;63.90;;;11.91;61.94;99321.75;12256299;19;20117;-86
2023/01/15 04:13:14;;;;;;;;;;;12.90;64.00;;;11.90;62.09;99314.84;12254785;19;20039;-86
2023/01/15 04:17:18;;;;;;;0.40;0.40;;;13.00;63.70;;;11.94;62.09;99324.13;12253044;19;20266;-86
2023/01/15 04:21:20;;;;;;;0.40;0.40;;;13.00;64.40;;;11.95;62.18;99323.16;12252685;19;20432;-86
2023/01/15 04:25:22;;;;;;;0.40;0.40;;;13.00;63.90;;;11.92;62.13;99328.66;12254978;19;20035;-86
2023/01/15 04:29:25;;;;;;;0.52;0.40;;;13.00;63.90;;;11.71;62.15;99280.69;12255766;19;20023;-86
2023/01/15 04:33:26;;;;;;;0.60;0.60;;;13.00;64.70;;;11.89;62.17;99309.78;12255260;19;20015;-86
2023/01/15 04:37:28;;;;;;;2.05;0.40;;;13.00;64.00;;;11.92;62.17;99333.06;12255794;19;20014;-86
2023/01/15 04:45:50;;;;;;;0.40;0.40;;;13.00;64.30;;;11.88;62.02;99395.28;12253889;19;20085;-86
2023/01/15 04:49:52;;;;;;;0.68;0.68;;;13.00;63.30;;;11.80;62.05;99381.97;12256931;19;20712;-86
2023/01/15 04:53:54;;;;;;;0.40;0.40;;;12.90;62.70;;;11.64;61.97;99398.06;12255097;19;20018;-86
2023/01/15 04:57:55;;;;;;;0.40;0.40;;;12.80;62.50;;;11.55;62.14;99404.03;12255492;19;20086;-86
2023/01/15 05:01:57;;;;;;;0.40;0.40;;;12.70;62.20;;;11.56;61.92;99431.84;12255627;19;20010;-86
2023/01/15 05:06:03;;;;;;;0.30;0.30;;;12.70;62.20;;;11.40;61.97;99426.19;12253249;19;20573;-86
2023/01/15 05:10:05;;;;;;;0.40;0.40;;;12.60;62.00;;;11.18;62.14;99412.19;12256806;19;20472;-86
2023/01/15 05:14:07;;;;;;;0.40;0.40;;;12.50;61.50;;;11.15;61.84;99433.34;12250999;19;20098;-86
2023/01/15 05:18:13;;;;;;;0.40;0.40;;;12.40;60.90;;;11.22;61.92;99472.88;12250904;19;20107;-87
2023/01/15 05:22:15;;;;;;;0.52;0.52;;;12.30;60.60;;;11.11;61.75;99460.66;12253390;19;20026;-87
2023/01/15 05:26:18;;;;;;;0.80;0.40;;;12.20;60.30;;;10.99;61.78;99458.97;12246675;19;20029;-86
2023/01/15 05:30:20;;;;;;;0.73;0.68;;;12.00;59.90;;;10.87;61.71;99452.91;12253604;19;20030;-86
2023/01/15 05:34:22;;;;;;;0.50;0.50;;;11.90;59.80;;;10.79;61.82;99471.78;12250347;19;20018;-86
2023/01/15 05:38:24;;;;;;;0.68;0.50;;;11.80;59.70;;;10.69;61.66;99470.81;12252215;19;20480;-87
2023/01/15 05:42:25;;;;;;;0.40;0.40;;;11.70;59.60;;;10.58;61.69;99466.41;12254057;19;20007;-87
2023/01/15 05:46:28;;;;;;;0.40;0.40;;;11.60;59.50;;;10.38;61.51;99467.91;12248867;19;20366;-87
2023/01/15 05:50:29;;;;;;;0.90;0.50;;;11.50;59.50;;;10.44;61.57;99497.94;12252261;19;20006;-86
2023/01/15 05:54:34;;;;;;;0.43;0.43;;;11.40;59.50;;;10.24;61.51;99470.69;12247391;19;20014;-87
2023/01/15 05:58:37;;;;;;;;;;;11.30;59.50;;;10.06;61.62;99474.66;12250799;19;20050;-87
2023/01/15 06:02:38;;;;;;;0.30;0.30;;;11.20;59.70;;;10.17;61.56;99495.56;12249512;19;19944;-87
2023/01/15 06:06:42;;;;;;;0.82;0.60;;;11.10;59.60;;;10.01;61.50;99474.16;12246247;19;20486;-87
2023/01/15 06:10:46;;;;;;;0.43;0.40;;;11.10;59.70;;;9.98;61.50;99463.00;12252236;19;20013;-87
2023/01/15 06:14:48;;;;;;;0.40;0.40;;;11.00;59.80;;;9.96;61.51;99459.69;12247824;19;20027;-90
2023/01/15 06:18:50;;;;;;;0.30;0.30;;;11.00;59.80;;;9.93;61.38;99474.72;12246025;19;20010;-90
2023/01/15 06:22:52;;;;;;;0.40;0.40;;;11.00;59.70;;;9.83;61.58;99452.84;12246939;19;20025;-90
2023/01/15 06:26:54;;;;;;;0.35;0.30;;;10.90;59.80;;;9.88;61.43;99451.59;12248626;19;20013;-90
2023/01/15 06:30:56;;;;;;;0.40;0.40;;;10.90;60.00;;;9.94;61.49;99466.78;12247599;19;20494;-90
2023/01/15 06:34:58;;;;;;;0.90;0.60;;;10.90;60.20;;;10.00;61.66;99469.91;12245829;19;20026;-89
2023/01/15 06:39:00;;;;;;;0.60;0.60;;;10.90;60.10;;;10.00;61.55;99483.75;12244917;19;20014;-90
2023/01/15 06:47:23;;;;;;;0.60;0.60;;;10.90;60.00;;;9.94;61.70;99484.22;12245643;19;20010;-90
2023/01/15 06:51:24;;;;;;;0.50;0.50;;;11.00;60.20;;;10.00;61.49;99495.97;12247307;19;20006;-90
2023/01/15 06:55:26;;;;;;;0.70;0.70;;;11.00;60.20;;;9.97;61.62;99497.03;12244370;19;20042;-90
2023/01/15 06:59:28;;;;;;;0.70;0.70;;;11.00;60.20;;;9.94;61.51;99492.03;12246582;19;20019;-90
2023/01/15 07:03:29;;;;;;;0.70;0.70;;;11.00;60.20;;;10.03;61.75;99495.75;12245282;19;20018;-90
2023/01/15 07:07:31;;;;;;;0.80;0.70;;;11.00;60.20;;;10.00;61.58;99490.75;12247317;19;20460;-90
2023/01/15 07:11:34;;;;;;;1.13;0.85;;;11.00;60.20;;;10.03;61.63;99495.75;12248394;19;20086;-89
2023/01/15 07:15:38;;;;;;;0.80;0.50;;;11.00;60.20;;;9.99;61.70;99495.16;12243849;19;20015;-86
2023/01/15 07:19:40;;;;;;;0.60;0.50;;;11.00;60.10;;;9.49;61.63;99429.22;12244043;19;20383;-87
2023/01/15 07:23:41;;;;;;;0.60;0.60;;;11.00;60.00;;;9.84;61.63;99498.84;12247880;19;20013;-88
2023/01/15 07:27:47;;;;;;;0.55;0.55;;;11.00;60.10;;;9.81;61.50;99484.25;12247954;19;20698;-87
2023/01/15 07:31:49;;;;;;;1.35;0.63;;;11.00;60.20;;;9.74;61.71;99496.88;12247035;19;20022;-86
2023/01/15 07:35:51;;;;;;;1.10;1.00;;;10.90;60.00;;;9.89;61.74;99525.44;12243885;19;20018;-87
2023/01/15 07:39:52;;;;;;;0.70;0.70;;;10.90;60.10;;;9.84;61.71;99515.31;12244138;19;20022;-86
2023/01/15 07:52:34;;;;;;;1.40;0.55;;;10.90;60.00;;;9.69;61.55;99506.84;12256801;19;20030;-86
2023/01/15 07:56:36;;;;;;;0.55;0.55;;;10.80;60.00;;;9.57;61.61;99496.44;12250660;19;20019;-87
2023/01/15 08:00:38;;;;;;;0.45;0.40;;;10.80;60.10;;;9.42;61.67;99504.38;12252292;19;20017;-87
2023/01/15 08:04:40;;;;;;;0.57;0.57;;;10.80;60.00;;;9.62;61.67;99544.69;12256395;19;20412;-87
2023/01/15 08:08:41;;;;;;;0.70;0.70;;;10.80;60.10;;;9.50;61.72;99529.91;12258373;19;20014;-87
2023/01/15 08:17:04;;;;;;;0.43;0.43;;;10.60;60.20;;;9.56;61.65;99542.53;12259462;19;20078;-87
2023/01/15 08:21:11;;;;;;;0.50;0.50;;;10.60;60.10;;;8.95;61.56;99426.97;12253560;19;20026;-88
2023/01/15 08:25:18;;;;;;;0.90;0.55;;;10.60;60.20;;;9.57;61.75;99520.72;12250044;19;20015;-88
2023/01/15 08:29:21;;;;;;;0.50;0.50;;;10.60;60.20;;;9.49;61.77;99507.41;12255663;19;20011;-87
2023/01/15 08:33:23;;;;;;;0.60;0.60;;;10.80;60.30;;;9.22;61.54;99468.47;12253862;19;20026;-86
2023/01/15 08:37:24;;;;;;;0.55;0.55;;;10.60;60.10;;;9.51;61.57;99536.78;12256045;19;20017;-87
2023/01/15 08:41:26;;;;;;;0.60;0.60;;;10.50;60.00;;;9.45;61.72;99532.00;12245764;19;20453;-87
2023/01/15 08:45:28;;;;;;;0.57;0.57;;;10.50;59.90;;;9.33;61.69;99525.03;12247576;19;20018;-87
2023/01/15 08:49:29;;;;;;;1.65;0.82;;;10.50;59.90;;;9.43;61.74;99537.31;12251862;19;20014;-86
2023/01/15 08:53:31;;;;;;;0.68;0.68;;;10.40;60.00;;;9.44;61.71;99528.56;12252622;19;20043;-86
2023/01/15 08:57:34;;;;;;;1.15;0.90;;;10.50;60.10;;;9.42;61.65;99538.25;12253324;19;20548;-86
2023/01/15 09:01:36;;;;;;;0.52;0.52;;;10.50;60.10;;;9.34;61.65;99522.31;12248067;19;20015;-87
2023/01/15 09:05:38;;;;;;;0.88;0.57;;;10.50;60.00;;;9.39;61.70;99528.03;12245309;19;20078;-87
2023/01/15 09:09:39;;;;;;;1.10;0.70;;;10.50;60.00;;;9.27;61.80;99519.31;12252474;19;20031;-87
2023/01/15 09:13:41;;;;;;;0.50;0.50;;;10.40;60.00;;;9.37;61.93;99544.72;12250747;19;20043;-86
2023/01/15 09:17:42;;;;;;;0.80;0.80;;;10.40;60.10;;;9.40;61.82;99560.16;12251915;19;20021;-86
2023/01/15 09:21:44;;;;;;;1.15;0.70;;;10.40;60.10;;;9.25;61.80;99539.41;12252990;19;20018;-86
2023/01/15 09:25:59;;;;;;;1.20;0.50;;;10.40;60.00;;;9.30;61.64;99552.13;12247360;19;20020;-86
2023/01/15 09:30:01;;;;;;;0.80;0.80;;;10.50;60.00;;;9.22;61.79;99552.66;12254128;19;20407;-86
2023/01/15 09:34:02;;;;;;;0.60;0.60;;;10.40;59.90;;;9.34;61.91;99571.00;12250398;19;20010;-87
2023/01/15 09:38:04;;;;;;;0.70;0.70;;;10.50;59.90;;;9.28;61.63;99554.84;12255480;19;20086;-86
2023/01/15 09:42:23;;;;;;;0.68;0.63;;;10.50;59.90;;;9.34;61.61;99571.00;12290281;19;20261;-86
2023/01/15 09:46:35;;;;;;;1.40;1.30;;;10.40;59.90;;;9.16;61.71;99537.47;12287975;19;20014;-89
2023/01/15 09:51:02;;;;;;;0.95;0.80;;;10.40;59.70;;;9.30;61.75;99572.97;12295287;19;20047;-88
2023/01/15 09:55:08;;;;;;;1.35;1.23;;;10.50;59.80;;;9.33;61.78;99579.75;12291216;19;20022;-88
2023/01/15 09:59:37;;;;;;;1.35;1.25;;;10.40;59.70;;;9.22;61.87;99565.69;12292666;19;20018;-88
2023/01/15 10:03:58;;;;;;;0.98;0.98;;;10.40;59.70;;;9.28;61.67;99578.28;12294612;19;20018;-86
2023/01/15 10:08:14;;;;;;;1.40;1.10;;;10.40;59.70;;;9.31;61.79;99578.06;12293602;19;20015;-87
2023/01/15 10:12:34;;;;;;;0.85;0.80;;;10.50;59.70;;;9.24;61.68;99576.00;12287224;19;20014;-88
2023/01/15 10:16:36;;;;;;;0.60;0.60;;;10.40;59.50;;;9.26;61.77;99579.31;12290337;19;20019;-87
2023/01/15 10:21:23;;;;;;;0.85;0.82;;;10.50;59.60;;;9.26;61.79;99585.38;12291051;19;20008;-88
2023/01/15 10:25:32;;;;;;;0.65;0.63;;;10.50;59.70;;;9.37;61.72;99582.06;12282639;19;20010;-88
2023/01/15 10:30:14;;;;;;;1.08;0.98;;;10.50;59.80;;;9.41;61.92;99574.84;12290973;19;20015;-88
2023/01/15 10:34:33;;;;;;;0.93;0.88;;;10.50;59.70;;;9.43;61.86;99576.41;12273761;19;20010;-88
2023/01/15 10:38:51;;;;;;;1.02;0.85;;;10.50;59.60;;;9.44;61.79;99585.06;12260959;19;20022;-88
2023/01/15 10:43:25;;;;;;;0.80;0.80;;;10.60;59.50;;;9.24;61.65;99560.38;12257200;19;20011;-88
2023/01/15 10:47:35;;;;;;;0.80;0.80;;;10.60;59.50;;;9.40;61.84;99567.97;12256389;19;20035;-89
2023/01/15 10:52:06;;;;;;;1.17;0.80;;;10.60;59.30;;;9.49;61.65;99590.78;12253653;19;20011;-89
2023/01/15 10:56:27;;;;;;;0.60;0.60;;;10.60;59.40;;;9.51;61.71;99578.50;12249997;19;20011;-88
2023/01/15 11:00:59;;;;;;;1.02;0.85;;;10.60;59.50;;;9.52;61.88;99573.16;12249610;19;20501;-89
2023/01/15 11:05:02;;;;;;;1.05;0.95;;;10.70;59.40;;;9.13;61.70;99519.44;12260315;19;20021;-89
2023/01/15 11:09:05;;;;;;;1.05;0.90;;;10.70;59.20;;;9.57;61.79;99590.25;12264000;19;20042;-88
2023/01/15 11:22:19;;;;;;;1.00;0.90;;;10.70;59.20;;;9.47;61.46;99569.19;12254142;19;20014;-88
2023/01/15 11:26:27;;;;;;;;;;;10.80;59.60;;;9.45;61.73;99569.31;12262852;19;20014;-88
2023/01/15 11:30:38;;;;;;;0.65;0.65;;;10.80;59.30;;;9.61;61.75;99589.91;12262367;19;19923;-88
2023/01/15 11:34:40;;;;;;;0.93;0.93;;;11.00;59.30;;;9.61;61.71;99578.66;12258378;19;20019;-88
2023/01/15 11:38:45;;;;;;;1.10;0.70;;;10.90;59.20;;;9.70;61.78;99591.91;12263310;19;20011;-88
2023/01/15 11:51:46;;;;;;;0.63;0.63;;;10.90;58.80;;;9.33;61.57;99519.84;12261247;19;20354;-88
2023/01/15 11:56:05;;;;;;;0.50;0.50;;;10.90;58.70;;;9.69;61.58;99564.19;12254114;19;20015;-88
2023/01/15 12:00:18;;;;;;;0.70;0.70;;;11.00;58.50;;;9.79;61.55;99573.94;12263375;19;20013;-87
2023/01/15 12:04:48;;;;;;;0.68;0.68;;;10.90;58.50;;;9.77;61.58;99571.44;12257815;19;20491;-88
2023/01/15 12:08:57;;;;;;;1.27;0.70;;;11.00;58.50;;;9.78;61.64;99567.09;12262560;19;20106;-88
2023/01/15 12:13:24;;;;;;;0.70;0.60;;;11.00;58.50;;;9.75;61.68;99562.91;12261210;19;20022;-87
2023/01/15 12:17:53;;;;;;;0.55;0.50;;;11.00;58.30;;;9.71;61.48;99554.47;12259088;19;20014;-86
2023/01/15 12:22:20;;;;;;;0.52;0.52;;;11.00;58.30;;;9.74;61.36;99563.84;12261038;19;20482;-88
2023/01/15 12:26:33;;;;;;;0.70;0.70;;;11.00;58.20;;;9.28;61.46;99487.09;12259408;19;20362;-88
2023/01/15 12:30:37;;;;;;;0.80;0.68;;;11.00;58.10;;;9.66;61.37;99540.09;12260431;19;20011;-87
2023/01/15 12:35:17;;;;;;;0.73;0.73;;;11.00;58.30;;;9.49;61.35;99518.66;12247775;19;20019;-87
2023/01/15 12:39:49;;;;;;;0.52;0.50;;;11.00;58.10;;;9.84;61.51;99575.28;12252215;19;20010;-89
2023/01/15 12:48:50;;;;;;;0.90;0.90;;;11.00;57.90;;;9.69;61.30;99553.75;12256566;19;20011;-88
2023/01/15 12:53:24;;;;;;;4.68;0.65;;;11.00;57.80;;;9.78;61.21;99565.31;12253852;19;20048;-88
2023/01/15 12:57:35;;;;;;;1.17;0.50;;;11.00;57.90;;;9.85;61.35;99563.06;12257711;19;20018;-88
2023/01/15 13:02:01;;;;;;;1.75;0.60;;;11.00;57.80;;;9.79;61.41;99550.50;12254508;19;20019;-88
2023/01/15 13:06:07;;;;;;;0.68;0.68;;;11.00;57.60;;;9.67;61.29;99526.97;12252616;19;20504;-89
2023/01/15 13:10:26;;;;;;;1.75;0.55;;;11.10;57.70;;;9.79;61.08;99547.88;12256324;19;20027;-86
2023/01/15 13:14:29;;;;;;;0.52;0.52;;;11.00;57.60;;;9.81;61.27;99543.41;12252732;19;20026;-86
2023/01/15 13:18:36;;;;;;;0.60;0.60;;;11.00;57.60;;;9.80;61.03;99546.94;12253349;19;20018;-86
2023/01/15 13:23:00;;;;;;;0.65;0.65;;;11.00;57.50;;;9.84;61.15;99543.19;12255092;19;20011;-86
2023/01/15 13:27:23;;;;;;;1.70;0.60;;;11.00;57.50;;;9.89;61.01;99541.06;12253476;19;20022;-85
2023/01/15 13:31:42;;;;;;;0.82;0.50;;;11.00;57.20;;;9.89;60.91;99564.53;12254666;19;20333;-85
2023/01/15 13:35:53;;;;;;;1.35;0.70;;;11.00;57.30;;;9.90;60.95;99576.63;12251855;19;20025;-86
2023/01/15 13:40:12;;;;;;;0.93;0.60;;;11.10;57.40;;;9.80;60.82;99566.00;12255442;19;20031;-86
2023/01/15 13:44:35;;;;;;;0.68;0.57;;;11.10;57.10;;;9.80;60.78;99573.00;12253654;19;20026;-86
2023/01/15 13:48:48;;;;;;;0.68;0.68;;;11.10;56.60;;;9.81;60.88;99569.47;12260320;19;20011;-86
2023/01/15 13:53:06;;;;;;;0.60;0.60;;;11.00;57.00;;;9.66;60.88;99546.13;12259584;19;20524;-86
2023/01/15 13:57:36;;;;;;;1.33;0.73;;;11.00;56.80;;;9.73;60.74;99578.66;12261595;19;20408;-86
2023/01/15 14:01:37;;;;;;;0.50;0.50;;;11.00;56.70;;;9.81;60.91;99593.75;12263559;19;20003;-86
2023/01/15 14:05:39;;;;;;;0.70;0.70;;;11.00;56.80;;;9.82;60.89;99590.19;12260415;19;20021;-86
2023/01/15 14:09:41;;;;;;;0.70;0.70;;;11.00;56.80;;;9.78;60.68;99580.13;12263635;19;20051;-86
2023/01/15 14:14:12;;;;;;;0.73;0.65;;;11.00;56.70;;;9.77;60.63;99581.88;12264493;19;20023;-86
2023/01/15 14:19:21;;;;;;;1.10;0.80;;;10.90;56.50;;;9.69;60.63;99578.97;12266569;19;20026;-86
2023/01/15 14:24:14;;;;;;;1.70;0.80;;;10.90;56.20;;;9.72;60.60;99610.88;12259997;19;20352;-86
2023/01/15 14:29:02;;;;;;;0.95;0.70;;;11.00;56.40;;;9.67;60.63;99607.75;12264609;19;20021;-86
2023/01/15 14:33:37;;;;;;;1.83;1.15;;;10.90;56.50;;;9.64;60.57;99615.81;12260456;19;20014;-87
2023/01/15 14:37:57;;;;;;;0.82;0.82;;;10.90;56.50;;;9.60;60.57;99627.38;12258410;19;20496;-86
2023/01/15 14:46:45;;;;;;;0.73;0.70;;;10.80;56.40;;;9.56;60.60;99648.50;12259248;19;20010;-86
2023/01/15 14:50:48;;;;;;;1.83;0.88;;;10.80;56.60;;;9.52;60.43;99637.47;12259690;19;20034;-86
2023/01/15 14:54:52;;;;;;;0.80;0.65;;;10.80;56.50;;;9.50;60.53;99662.81;12261477;19;20045;-85
2023/01/15 14:59:02;;;;;;;0.70;0.70;;;10.70;56.30;;;9.25;60.22;99629.75;12264956;19;20381;-86
2023/01/15 15:03:19;;;;;;;1.70;0.80;;;10.80;56.40;;;9.47;60.33;99689.06;12257857;19;20014;-86
2023/01/15 15:07:26;;;;;;;2.17;1.08;;;10.70;56.30;;;9.47;60.46;99697.72;12261940;19;20010;-86
2023/01/15 15:16:23;;;;;;;2.42;0.90;;;10.70;56.30;;;9.42;60.16;99712.00;12263186;19;20022;-86
2023/01/15 15:20:55;;;;;;;0.60;0.60;;;10.60;56.10;;;9.39;60.25;99705.22;12268195;19;20020;-86
2023/01/15 15:25:00;;;;;;;0.88;0.70;;;10.60;56.20;;;9.34;60.11;99683.00;12271192;19;20011;-86
2023/01/15 15:29:09;;;;;;;0.70;0.70;;;10.60;56.00;;;9.06;60.13;99648.38;12274872;19;20053;-86
2023/01/15 15:33:23;;;;;;;0.80;0.80;;;10.60;56.10;;;9.26;60.08;99681.78;12272485;19;20026;-86
2023/01/15 15:37:27;;;;;;;1.00;0.68;;;10.50;56.10;;;9.03;60.13;99656.41;12270539;19;20069;-87
2023/01/15 15:50:23;;;;;;;0.88;0.80;;;10.40;56.00;;;9.14;60.16;99695.59;12270623;19;20010;-87
2023/01/15 15:54:28;;;;;;;0.60;0.60;;;10.40;56.00;;;9.16;60.22;99705.94;12266156;19;20014;-87
2023/01/15 15:58:36;;;;;;;0.80;0.80;;;10.30;55.80;;;9.12;60.10;99702.66;12263667;19;20022;-87
2023/01/15 16:02:40;;;;;;;1.00;0.70;;;10.30;56.00;;;9.06;59.83;99690.06;12266144;19;20405;-87
2023/01/15 16:06:41;;;;;;;0.65;0.65;;;10.20;55.90;;;9.02;60.16;99686.00;12263897;19;20011;-87
2023/01/15 16:10:51;;;;;;;0.88;0.60;;;10.30;55.90;;;8.93;59.91;99670.97;12261841;19;20018;-87
2023/01/15 16:14:55;;;;;;;0.60;0.60;;;10.20;55.80;;;8.96;60.10;99682.00;12263800;19;20025;-88
2023/01/15 16:19:01;;;;;;;1.65;0.90;;;10.20;55.90;;;8.91;59.96;99688.44;12284910;19;20015;-87
2023/01/15 16:23:04;;;;;;;0.68;0.68;;;10.10;55.90;;;8.82;59.91;99671.66;12282191;19;20022;-87
2023/01/15 16:27:15;;;;;;;0.98;0.90;;;10.10;56.00;;;8.73;60.12;99657.47;12268556;19;20011;-87
2023/01/15 16:31:18;;;;;;;0.80;0.80;;;10.10;55.90;;;8.49;59.78;99612.22;12276156;19;20010;-87
2023/01/15 16:35:23;;;;;;;0.90;0.90;;;10.00;55.90;;;8.76;59.85;99659.06;12263493;19;20015;-87
2023/01/15 16:39:45;;;;;;;0.70;0.70;;;10.00;56.00;;;8.70;59.71;99660.28;12264643;19;20003;-86
2023/01/15 16:43:57;;;;;;;0.60;0.60;;;10.00;55.90;;;8.61;59.69;99648.72;12260905;19;20031;-88
2023/01/15 16:48:10;;;;;;;1.02;0.70;;;9.90;55.80;;;8.73;59.77;99674.88;12262318;19;20535;-86
2023/01/15 16:52:37;;;;;;;0.77;0.77;;;9.90;55.80;;;8.68;59.86;99679.53;12260720;19;20007;-87
2023/01/15 16:56:38;;;;;;;0.57;0.57;;;9.90;56.10;;;8.68;59.86;99682.97;12253062;19;20019;-87
2023/01/15 17:00:54;;;;;;;1.45;0.90;;;10.10;55.80;;;8.55;59.65;99651.69;12255932;19;20505;-87
2023/01/15 17:04:56;;;;;;;1.05;0.70;;;9.90;55.50;;;8.65;59.64;99675.34;12257374;19;20078;-87
2023/01/15 17:08:58;;;;;;;0.63;0.63;;;9.80;55.70;;;8.46;59.79;99649.69;12263280;19;20031;-88
2023/01/15 17:12:59;;;;;;;0.57;0.57;;;9.80;55.60;;;8.53;59.84;99661.38;12263036;19;20482;-87
2023/01/15 17:17:25;;;;;;;0.77;0.77;;;9.80;55.70;;;8.49;59.71;99672.06;12261741;19;20094;-87
2023/01/15 17:21:28;;;;;;;1.10;0.98;;;9.80;55.60;;;8.46;59.85;99644.47;12253214;19;20021;-87
2023/01/15 17:25:34;;;;;;;1.73;0.80;;;9.80;55.70;;;8.50;59.53;99658.94;12247863;19;20011;-87
2023/01/15 17:29:36;;;;;;;1.20;1.10;;;9.80;55.70;;;8.49;59.44;99659.06;12253735;19;20482;-87
2023/01/15 17:33:37;;;;;;;1.15;1.00;;;9.80;55.50;;;8.57;59.64;99680.22;12254064;19;20074;-87
2023/01/15 17:37:39;;;;;;;1.20;1.10;;;9.70;55.50;;;8.45;59.55;99676.59;12258408;19;20642;-87
2023/01/15 17:41:41;;;;;;;0.60;0.60;;;9.70;55.40;;;8.23;59.52;99632.06;12256335;19;20007;-87
2023/01/15 17:45:43;;;;;;;1.52;0.70;;;9.70;55.40;;;8.45;59.68;99660.16;12251033;19;20038;-87
2023/01/15 17:49:45;;;;;;;2.83;0.98;;;9.70;55.30;;;8.40;59.60;99670.88;12249499;19;20726;-86
2023/01/15 17:53:46;;;;;;;1.25;0.80;;;9.70;55.30;;;8.38;59.32;99670.13;12253850;19;20040;-87
2023/01/15 18:06:35;;;;;;;0.75;0.68;;;9.60;55.40;;;8.33;59.63;99678.19;12251670;19;20122;-87
2023/01/15 18:10:37;;;;;;;1.00;0.90;;;9.60;55.40;;;8.36;59.53;99671.97;12258636;19;20488;-87
2023/01/15 18:14:38;;;;;;;1.35;0.70;;;9.60;55.30;;;8.28;59.54;99667.25;12254138;19;20014;-87
2023/01/15 18:18:40;;;;;;;0.65;0.65;;;9.60;55.40;;;8.42;59.57;99684.59;12251965;19;20018;-86
2023/01/15 18:22:43;;;;;;;1.55;0.82;;;9.60;55.30;;;8.30;59.38;99678.41;12252130;19;20015;-87
2023/01/15 18:26:44;;;;;;;0.98;0.80;;;9.60;54.90;;;8.11;59.27;99657.91;12252855;19;20046;-87
2023/01/15 18:30:47;;;;;;;4.57;1.15;;;9.60;55.10;;;8.22;59.43;99669.41;12256007;19;20023;-87
2023/01/15 18:34:48;;;;;;;1.90;0.70;;;9.60;55.00;;;8.31;59.36;99690.44;12251088;19;20018;-86
2023/01/15 18:38:50;;;;;;;0.88;0.75;;;9.50;55.10;;;8.28;59.55;99695.84;12254908;19;20021;-87
2023/01/15 18:47:16;;;;;;;1.38;1.13;;;9.50;55.20;;;8.30;59.45;99711.38;12255142;19;20010;-87